createdAt,value
2022-11-07T00:02:28.423Z,13.30
2022-11-07T00:08:45.830Z,11.20
2022-11-07T00:15:10.205Z,11.70
2022-11-07T00:21:34.588Z,10.60
2022-11-07T00:27:59.030Z,13.00
2022-11-07T00:34:23.330Z,10.80
2022-11-07T00:40:47.900Z,12.10
2022-11-07T00:47:12.285Z,11.60
2022-11-07T00:53:36.644Z,11.50
2022-11-07T01:00:01.094Z,10.60
2022-11-07T01:06:25.463Z,9.70
2022-11-07T01:12:49.815Z,11.50
2022-11-07T01:19:14.369Z,11.30
2022-11-07T01:25:38.645Z,9.90
2022-11-07T01:32:05.962Z,9.10
2022-11-07T01:38:30.269Z,10.20
2022-11-07T01:44:54.689Z,10.00
2022-11-07T01:51:18.950Z,10.00
2022-11-07T01:57:43.401Z,11.00
2022-11-07T02:04:10.568Z,10.30
2022-11-07T02:10:34.886Z,9.30
2022-11-07T02:17:02.047Z,8.50
2022-11-07T02:23:22.046Z,7.90
2022-11-07T02:29:46.436Z,8.10
2022-11-07T02:36:15.655Z,8.70
2022-11-07T02:42:40.091Z,7.60
2022-11-07T02:49:04.523Z,8.20
2022-11-07T02:55:28.827Z,8.40
2022-11-07T03:01:53.216Z,8.70
2022-11-07T03:08:17.760Z,8.50
2022-11-07T03:14:42.131Z,8.30
2022-11-07T03:21:06.801Z,7.90
2022-11-07T03:27:31.093Z,8.60
2022-11-07T03:33:55.343Z,9.10
2022-11-07T03:40:19.830Z,8.00
2022-11-07T03:46:44.151Z,7.60
2022-11-07T03:53:08.440Z,8.60
2022-11-07T03:59:32.763Z,7.80
2022-11-07T04:05:57.079Z,7.70
2022-11-07T04:12:19.950Z,9.00
2022-11-07T04:18:44.335Z,8.90
2022-11-07T04:25:08.651Z,8.00
2022-11-07T04:31:33.078Z,8.50
2022-11-07T04:37:57.517Z,7.10
2022-11-07T04:44:21.825Z,8.80
2022-11-07T04:50:46.217Z,6.80
2022-11-07T04:57:10.621Z,7.30
2022-11-07T05:03:40.393Z,7.90
2022-11-07T05:10:09.647Z,7.00
2022-11-07T05:16:39.250Z,7.40
2022-11-07T05:23:02.144Z,9.30
2022-11-07T05:29:20.845Z,8.10
2022-11-07T05:35:43.965Z,7.30
2022-11-07T05:42:08.264Z,8.50
2022-11-07T05:48:32.658Z,7.80
2022-11-07T05:54:57.025Z,7.60
2022-11-07T06:01:21.391Z,7.30
2022-11-07T06:07:45.740Z,6.90
2022-11-07T06:14:10.057Z,7.20
2022-11-07T06:20:34.413Z,7.80
2022-11-07T06:26:58.742Z,7.20
2022-11-07T06:33:23.089Z,8.20
2022-11-07T06:39:47.517Z,7.60
2022-11-07T06:46:12.015Z,7.10
2022-11-07T06:52:36.258Z,6.60
2022-11-07T06:59:00.633Z,6.20
2022-11-07T07:05:25.365Z,8.40
2022-11-07T07:11:49.682Z,7.50
2022-11-07T07:18:13.952Z,9.50
2022-11-07T07:24:30.758Z,7.40
2022-11-07T07:30:55.215Z,6.70
2022-11-07T07:37:19.595Z,10.10
2022-11-07T07:43:43.919Z,10.10
2022-11-07T07:50:08.248Z,7.30
2022-11-07T07:56:32.647Z,7.60
2022-11-07T08:02:56.767Z,8.00
2022-11-07T08:09:21.056Z,8.20
2022-11-07T08:15:45.590Z,9.20
2022-11-07T08:22:02.805Z,8.50
2022-11-07T08:28:27.145Z,7.40
2022-11-07T08:34:51.562Z,11.10
2022-11-07T08:41:19.672Z,10.50
2022-11-07T08:47:46.648Z,9.40
2022-11-07T08:54:10.931Z,9.00
2022-11-07T09:00:35.396Z,8.30
2022-11-07T09:06:59.963Z,8.60
2022-11-07T09:13:27.229Z,8.80
2022-11-07T09:19:51.763Z,6.50
2022-11-07T09:26:16.527Z,7.70
2022-11-07T09:32:45.685Z,7.20
2022-11-07T09:39:10.417Z,6.50
2022-11-07T09:45:40.729Z,7.30
2022-11-07T09:52:13.808Z,7.20
2022-11-07T09:58:40.704Z,8.40
2022-11-07T10:05:05.078Z,6.10
2022-11-07T10:11:41.334Z,7.60
2022-11-07T10:18:08.559Z,6.60
2022-11-07T10:24:44.651Z,5.80
2022-11-07T10:31:18.310Z,6.10
2022-11-07T10:37:42.997Z,6.40
2022-11-07T10:44:10.137Z,6.50
2022-11-07T10:50:34.583Z,6.20
2022-11-07T10:56:59.217Z,7.70
2022-11-07T11:03:41.907Z,6.10
2022-11-07T11:10:14.142Z,6.30
2022-11-07T11:16:44.483Z,20.10
2022-11-07T11:23:08.863Z,11.50
2022-11-07T11:29:38.200Z,12.10
2022-11-07T11:36:12.470Z,6.80
2022-11-07T11:42:39.673Z,7.00
2022-11-07T11:49:06.822Z,9.10
2022-11-07T12:01:44.271Z,8.50
2022-11-07T12:08:05.849Z,5.40
2022-11-07T12:14:38.274Z,7.50
2022-11-07T12:21:05.756Z,5.90
2022-11-07T12:33:42.993Z,6.60
2022-11-07T12:40:13.722Z,6.60
2022-11-07T12:46:50.372Z,6.80
2022-11-07T12:53:16.402Z,6.40
2022-11-07T12:59:41.157Z,4.90
2022-11-07T13:06:29.815Z,6.10
2022-11-07T13:12:59.787Z,6.00
2022-11-07T13:19:31.133Z,5.30
2022-11-07T13:25:57.173Z,6.30
2022-11-07T13:32:30.781Z,5.70
2022-11-07T13:38:55.104Z,9.90
2022-11-07T13:45:19.638Z,8.70
2022-11-07T13:51:44.080Z,7.20
2022-11-07T13:58:14.203Z,6.00
2022-11-07T14:04:44.650Z,5.50
2022-11-07T14:11:22.697Z,4.70
2022-11-07T14:17:36.926Z,7.20
2022-11-07T14:24:01.251Z,6.30
2022-11-07T14:30:37.349Z,6.00
2022-11-07T14:37:01.735Z,6.50
2022-11-07T14:43:20.432Z,6.10
2022-11-07T14:49:44.841Z,8.30
2022-11-07T14:56:08.595Z,5.00
2022-11-07T15:02:35.540Z,6.00
2022-11-07T15:09:06.035Z,6.10
2022-11-07T15:15:48.741Z,4.90
2022-11-07T15:22:13.065Z,5.10
2022-11-07T15:28:37.436Z,5.50
2022-11-07T15:35:30.229Z,5.30
2022-11-07T15:41:46.117Z,5.10
2022-11-07T15:48:13.464Z,5.50
2022-11-07T15:54:38.111Z,4.40
2022-11-07T16:01:02.650Z,7.90
2022-11-07T16:07:30.041Z,9.00
2022-11-07T16:14:14.839Z,4.10
2022-11-07T16:20:39.011Z,4.60
2022-11-07T16:27:06.153Z,4.50
2022-11-07T16:33:30.503Z,3.90
2022-11-07T16:40:00.530Z,3.70
2022-11-07T16:46:33.685Z,3.70
2022-11-07T16:52:57.967Z,5.20
2022-11-07T16:59:22.516Z,4.50
2022-11-07T17:05:46.878Z,4.20
2022-11-07T17:12:05.477Z,4.30
2022-11-07T17:18:29.834Z,3.80
2022-11-07T17:24:54.138Z,4.60
2022-11-07T17:31:18.515Z,3.70
2022-11-07T17:37:42.796Z,5.20
2022-11-07T17:44:07.164Z,6.50
2022-11-07T17:50:31.592Z,7.10
2022-11-07T17:56:55.972Z,4.70
2022-11-07T18:03:10.265Z,5.60
2022-11-07T18:09:34.640Z,3.90
2022-11-07T18:15:58.963Z,3.30
2022-11-07T18:22:23.269Z,5.30
2022-11-07T18:28:47.593Z,5.30
2022-11-07T18:35:12.027Z,5.60
2022-11-07T18:41:36.336Z,4.10
2022-11-07T18:48:00.756Z,3.30
2022-11-07T18:54:25.034Z,3.80
2022-11-07T19:00:49.607Z,5.60
2022-11-07T19:07:19.895Z,4.00
2022-11-07T19:13:44.262Z,4.60
2022-11-07T19:20:10.080Z,3.70
2022-11-07T19:26:17.428Z,4.70
2022-11-07T19:32:35.851Z,4.70
2022-11-07T19:39:00.179Z,5.20
2022-11-07T19:45:24.580Z,3.40
2022-11-07T19:51:48.918Z,4.50
2022-11-07T19:58:13.323Z,4.70
2022-11-07T20:04:37.613Z,4.30
2022-11-07T20:11:02.064Z,4.10
2022-11-07T20:17:26.441Z,3.70
2022-11-07T20:23:50.714Z,4.00
2022-11-07T20:30:15.069Z,4.70
2022-11-07T20:36:41.961Z,3.90
2022-11-07T20:43:06.252Z,4.60
2022-11-07T20:49:30.573Z,4.50
2022-11-07T20:55:54.977Z,3.20
2022-11-07T21:02:19.553Z,4.00
2022-11-07T21:08:44.109Z,4.60
2022-11-07T21:15:08.457Z,5.00
2022-11-07T21:21:32.805Z,4.10
2022-11-07T21:27:57.213Z,4.30
2022-11-07T21:34:14.412Z,4.40
2022-11-07T21:40:37.457Z,5.40
2022-11-07T21:47:06.433Z,5.50
2022-11-07T21:53:34.071Z,7.70
2022-11-07T22:00:01.183Z,7.50
2022-11-07T22:06:25.475Z,8.70
2022-11-07T22:12:48.633Z,7.30
2022-11-07T22:19:13.311Z,7.30
2022-11-07T22:25:37.789Z,6.90
2022-11-07T22:32:02.201Z,5.40
2022-11-07T22:38:26.473Z,8.10
2022-11-07T22:44:50.901Z,5.80
2022-11-07T22:51:15.235Z,6.20
2022-11-07T22:57:39.538Z,5.70
2022-11-07T23:04:03.853Z,6.40
2022-11-07T23:10:28.136Z,7.00
2022-11-07T23:17:01.294Z,6.60
2022-11-07T23:23:25.699Z,7.30
2022-11-07T23:29:52.686Z,6.40
2022-11-07T23:36:16.940Z,5.70
2022-11-07T23:42:41.267Z,5.10
2022-11-07T23:49:03.927Z,4.30
2022-11-07T23:55:26.901Z,6.00
